Time,TemperatureF,DewpointF,PressureIn,WindDirection,WindDirectionDegrees,WindSpeedMPH,WindSpeedGustMPH,Humidity,HourlyPrecipIn,Conditions,Clouds,dailyrainin,SoftwareType,DateUTC
2013-04-30 00:02:00,51.0,50.0,29.15,North,0,0.0,0.0,98,0.00,,,0.00,,2013-04-30 04:02:00,
2013-04-30 00:12:00,51.0,50.0,29.15,North,0,0.0,0.0,98,0.00,,,0.00,,2013-04-30 04:12:00,
2013-04-30 00:22:00,51.0,50.0,29.15,North,0,0.0,0.0,98,0.00,,,0.00,,2013-04-30 04:22:00,
2013-04-30 00:32:00,51.0,50.0,29.15,North,0,0.0,0.0,98,0.00,,,0.00,,2013-04-30 04:32:00,
2013-04-30 00:42:00,51.0,50.0,29.15,North,0,0.0,0.0,98,0.00,,,0.00,,2013-04-30 04:42:00,
2013-04-30 00:52:00,50.0,49.0,29.15,North,0,0.0,0.0,98,0.00,,,0.00,,2013-04-30 04:52:00,
2013-04-30 01:02:00,49.0,48.0,29.15,North,0,0.0,0.0,98,0.00,,,0.00,,2013-04-30 05:02:00,
2013-04-30 01:12:00,49.0,48.0,29.15,North,0,0.0,0.0,98,0.00,,,0.00,,2013-04-30 05:12:00,
2013-04-30 01:22:00,49.0,48.0,29.15,North,0,0.0,0.0,98,0.00,,,0.00,,2013-04-30 05:22:00,
2013-04-30 01:31:00,49.0,48.0,29.15,North,0,0.0,0.0,98,0.00,,,0.00,,2013-04-30 05:31:00,
2013-04-30 01:42:00,49.0,48.0,29.15,North,0,0.0,0.0,98,0.00,,,0.00,,2013-04-30 05:42:00,
2013-04-30 01:51:00,48.0,47.0,29.15,North,0,0.0,0.0,98,0.00,,,0.00,,2013-04-30 05:51:00,
2013-04-30 02:02:00,48.0,47.0,29.15,North,0,0.0,0.0,98,0.00,,,0.00,,2013-04-30 06:02:00,
2013-04-30 02:12:00,48.0,47.0,29.15,North,0,0.0,0.0,98,0.00,,,0.00,,2013-04-30 06:12:00,
2013-04-30 02:21:00,48.0,47.0,29.15,North,0,0.0,0.0,98,0.00,,,0.00,,2013-04-30 06:21:00,
2013-04-30 02:32:00,48.0,47.0,29.15,North,0,0.0,0.0,98,0.00,,,0.00,,2013-04-30 06:32:00,
2013-04-30 02:42:00,48.0,47.0,29.15,North,0,0.0,0.0,98,0.00,,,0.00,,2013-04-30 06:42:00,
2013-04-30 02:52:00,47.0,46.0,29.15,North,0,0.0,0.0,98,0.00,,,0.00,,2013-04-30 06:52:00,
2013-04-30 03:01:00,47.0,46.0,29.12,North,0,0.0,0.0,98,0.00,,,0.00,,2013-04-30 07:01:00,
2013-04-30 03:11:00,47.0,46.0,29.12,North,0,0.0,0.0,98,0.00,,,0.00,,2013-04-30 07:11:00,
2013-04-30 03:21:00,47.0,46.0,29.12,North,0,0.0,0.0,98,0.00,,,0.00,,2013-04-30 07:21:00,
2013-04-30 03:32:00,47.0,46.0,29.12,North,0,0.0,0.0,98,0.00,,,0.00,,2013-04-30 07:32:00,
2013-04-30 03:42:00,47.0,46.0,29.12,North,0,0.0,0.0,98,0.00,,,0.00,,2013-04-30 07:42:00,
2013-04-30 03:52:00,47.0,46.0,29.12,North,0,0.0,0.0,98,0.00,,,0.00,,2013-04-30 07:52:00,
2013-04-30 04:02:00,47.0,46.0,29.12,North,0,0.0,0.0,98,0.00,,,0.00,,2013-04-30 08:02:00,
2013-04-30 04:11:00,47.0,46.0,29.12,North,0,0.0,0.0,98,0.00,,,0.00,,2013-04-30 08:11:00,
2013-04-30 04:22:00,47.0,46.0,29.12,North,0,0.0,0.0,98,0.00,,,0.00,,2013-04-30 08:22:00,
2013-04-30 04:32:00,47.0,46.0,29.12,North,0,0.0,0.0,98,0.00,,,0.00,,2013-04-30 08:32:00,
2013-04-30 04:42:00,47.0,46.0,29.12,North,0,0.0,0.0,98,0.00,,,0.00,,2013-04-30 08:42:00,
2013-04-30 04:52:00,46.0,45.0,29.15,North,0,0.0,0.0,98,0.00,,,0.00,,2013-04-30 08:52:00,
2013-04-30 05:02:00,46.0,45.0,29.15,North,0,0.0,0.0,98,0.00,,,0.00,,2013-04-30 09:02:00,
2013-04-30 05:11:00,46.0,45.0,29.15,North,0,0.0,0.0,98,0.00,,,0.00,,2013-04-30 09:11:00,
2013-04-30 05:22:00,46.0,45.0,29.15,North,0,0.0,0.0,98,0.00,,,0.00,,2013-04-30 09:22:00,
2013-04-30 05:33:00,45.0,44.0,29.15,North,0,0.0,0.0,98,0.00,,,0.00,,2013-04-30 09:33:00,
2013-04-30 05:43:00,45.0,44.0,29.15,North,0,0.0,0.0,98,0.00,,,0.00,,2013-04-30 09:43:00,
2013-04-30 05:52:00,45.0,44.0,29.15,North,0,0.0,0.0,98,0.00,,,0.00,,2013-04-30 09:52:00,
2013-04-30 06:03:00,45.0,44.0,29.15,North,0,0.0,0.0,98,0.00,,,0.00,,2013-04-30 10:03:00,
2013-04-30 06:12:00,45.0,44.0,29.15,North,0,0.0,0.0,98,0.00,,,0.00,,2013-04-30 10:12:00,
2013-04-30 06:22:00,45.0,44.0,29.15,North,0,0.0,0.0,98,0.00,,,0.00,,2013-04-30 10:22:00,
2013-04-30 06:32:00,45.0,44.0,29.15,North,0,0.0,0.0,98,0.00,,,0.00,,2013-04-30 10:32:00,
2013-04-30 06:52:00,44.0,43.0,29.18,North,0,0.0,0.0,98,0.00,,,0.00,,2013-04-30 10:52:00,
2013-04-30 07:02:00,44.0,43.0,29.18,North,0,0.0,0.0,98,0.00,,,0.00,,2013-04-30 11:02:00,
2013-04-30 07:11:00,44.0,43.0,29.18,North,0,0.0,0.0,98,0.00,,,0.00,,2013-04-30 11:11:00,
2013-04-30 07:21:00,44.0,43.0,29.18,North,0,0.0,0.0,98,0.00,,,0.00,,2013-04-30 11:21:00,
2013-04-30 07:32:00,45.0,44.0,29.18,North,0,0.0,0.0,98,0.00,,,0.00,,2013-04-30 11:32:00,
2013-04-30 07:42:00,45.0,44.0,29.18,North,0,0.0,0.0,98,0.00,,,0.00,,2013-04-30 11:42:00,
2013-04-30 07:52:00,46.0,45.0,29.21,North,0,0.0,0.0,98,0.00,,,0.00,,2013-04-30 11:52:00,
2013-04-30 08:01:00,46.0,45.0,29.21,North,0,0.0,0.0,98,0.00,,,0.00,,2013-04-30 12:01:00,
2013-04-30 08:11:00,46.0,45.0,29.21,North,0,0.0,0.0,98,0.00,,,0.00,,2013-04-30 12:11:00,
2013-04-30 08:22:00,47.0,46.0,29.21,North,0,0.0,0.0,98,0.00,,,0.00,,2013-04-30 12:22:00,
2013-04-30 08:31:00,49.0,48.0,29.21,North,0,0.0,0.0,98,0.00,,,0.00,,2013-04-30 12:31:00,
2013-04-30 08:41:00,49.0,48.0,29.21,North,0,0.0,0.0,98,0.00,,,0.00,,2013-04-30 12:41:00,
2013-04-30 08:51:00,50.0,49.0,29.21,North,0,0.0,0.0,98,0.00,,,0.00,,2013-04-30 12:51:00,
2013-04-30 09:01:00,58.0,54.0,29.21,North,0,0.0,0.0,88,0.00,,,0.00,,2013-04-30 13:01:00,
2013-04-30 09:11:00,58.0,54.0,29.21,North,0,0.0,0.0,88,0.00,,,0.00,,2013-04-30 13:11:00,
2013-04-30 09:21:00,61.0,50.0,29.21,North,0,0.0,0.0,66,0.00,,,0.00,,2013-04-30 13:21:00,
2013-04-30 09:31:00,67.0,50.0,29.23,North,0,0.0,0.0,54,0.00,,,0.00,,2013-04-30 13:31:00,
2013-04-30 09:41:00,67.0,50.0,29.23,North,0,0.0,0.0,54,0.00,,,0.00,,2013-04-30 13:41:00,
2013-04-30 09:52:00,67.0,50.0,29.23,North,0,0.0,0.0,54,0.00,,,0.00,,2013-04-30 13:52:00,
2013-04-30 10:02:00,77.0,51.0,29.23,North,0,0.0,4.0,41,0.00,,,0.00,,2013-04-30 14:02:00,
2013-04-30 10:11:00,77.0,51.0,29.23,North,0,0.0,4.0,41,0.00,,,0.00,,2013-04-30 14:11:00,
2013-04-30 10:21:00,80.0,54.0,29.23,ENE,59,4.0,4.0,41,0.00,,,0.00,,2013-04-30 14:21:00,
2013-04-30 10:31:00,80.0,53.0,29.23,ENE,63,3.0,5.0,40,0.00,,,0.00,,2013-04-30 14:31:00,
2013-04-30 10:41:00,80.0,53.0,29.23,ENE,63,3.0,5.0,40,0.00,,,0.00,,2013-04-30 14:41:00,
2013-04-30 10:52:00,80.0,53.0,29.23,ENE,69,3.0,4.0,40,0.00,,,0.00,,2013-04-30 14:52:00,
2013-04-30 11:02:00,75.0,52.0,29.23,North,0,0.0,4.0,45,0.00,,,0.00,,2013-04-30 15:02:00,
2013-04-30 11:11:00,75.0,52.0,29.23,North,0,0.0,4.0,45,0.00,,,0.00,,2013-04-30 15:11:00,
2013-04-30 11:21:00,71.0,54.0,29.23,North,0,0.0,4.0,56,0.00,,,0.00,,2013-04-30 15:21:00,
2013-04-30 11:32:00,71.0,54.0,29.23,North,0,0.0,4.0,56,0.00,,,0.00,,2013-04-30 15:32:00,
2013-04-30 11:42:00,71.0,54.0,29.23,North,0,0.0,4.0,56,0.00,,,0.00,,2013-04-30 15:42:00,
2013-04-30 11:52:00,72.0,55.0,29.21,ENE,74,5.0,6.0,56,0.00,,,0.00,,2013-04-30 15:52:00,
2013-04-30 12:02:00,74.0,55.0,29.21,North,0,0.0,6.0,51,0.00,,,0.00,,2013-04-30 16:02:00,
2013-04-30 12:12:00,74.0,55.0,29.21,North,0,0.0,6.0,51,0.00,,,0.00,,2013-04-30 16:12:00,
2013-04-30 12:23:00,74.0,55.0,29.21,North,0,0.0,6.0,51,0.00,,,0.00,,2013-04-30 16:23:00,
2013-04-30 12:33:00,74.0,55.0,29.21,North,0,0.0,6.0,51,0.00,,,0.00,,2013-04-30 16:33:00,
2013-04-30 12:42:00,74.0,55.0,29.21,North,0,0.0,6.0,51,0.00,,,0.00,,2013-04-30 16:42:00,
2013-04-30 12:52:00,76.0,54.0,29.21,ENE,65,4.0,7.0,47,0.00,,,0.00,,2013-04-30 16:52:00,
2013-04-30 13:02:00,77.0,52.0,29.21,ENE,65,3.0,7.0,42,0.00,,,0.00,,2013-04-30 17:02:00,
2013-04-30 13:12:00,77.0,52.0,29.21,ENE,65,3.0,7.0,42,0.00,,,0.00,,2013-04-30 17:12:00,
2013-04-30 13:22:00,77.0,52.0,29.21,ENE,65,3.0,7.0,42,0.00,,,0.00,,2013-04-30 17:22:00,
2013-04-30 13:32:00,78.0,55.0,29.18,ENE,68,4.0,6.0,45,0.00,,,0.00,,2013-04-30 17:32:00,
2013-04-30 13:42:00,78.0,55.0,29.18,ENE,68,4.0,6.0,45,0.00,,,0.00,,2013-04-30 17:42:00,
2013-04-30 13:53:00,76.0,51.0,29.18,East,79,5.0,7.0,42,0.00,,,0.00,,2013-04-30 17:53:00,
2013-04-30 14:01:00,77.0,54.0,29.18,ENE,67,6.0,7.0,45,0.00,,,0.00,,2013-04-30 18:01:00,
2013-04-30 14:11:00,77.0,54.0,29.18,ENE,67,6.0,7.0,45,0.00,,,0.00,,2013-04-30 18:11:00,
2013-04-30 14:22:00,77.0,51.0,29.18,North,0,0.0,7.0,40,0.00,,,0.00,,2013-04-30 18:22:00,
2013-04-30 14:32:00,78.0,54.0,29.18,ENE,76,4.0,6.0,43,0.00,,,0.00,,2013-04-30 18:32:00,
2013-04-30 14:42:00,78.0,54.0,29.18,ENE,76,4.0,6.0,43,0.00,,,0.00,,2013-04-30 18:42:00,
2013-04-30 14:52:00,78.0,54.0,29.18,ENE,76,4.0,6.0,43,0.00,,,0.00,,2013-04-30 18:52:00,
2013-04-30 15:01:00,78.0,54.0,29.18,ENE,76,4.0,6.0,43,0.00,,,0.00,,2013-04-30 19:01:00,
2013-04-30 15:11:00,78.0,54.0,29.18,ENE,76,4.0,6.0,43,0.00,,,0.00,,2013-04-30 19:11:00,
2013-04-30 15:22:00,79.0,53.0,29.18,ENE,69,5.0,8.0,41,0.00,,,0.00,,2013-04-30 19:22:00,
2013-04-30 15:32:00,80.0,56.0,29.15,ENE,64,6.0,8.0,44,0.00,,,0.00,,2013-04-30 19:32:00,
2013-04-30 15:42:00,80.0,56.0,29.15,ENE,64,6.0,8.0,44,0.00,,,0.00,,2013-04-30 19:42:00,
2013-04-30 15:52:00,79.0,54.0,29.15,ENE,66,6.0,8.0,42,0.00,,,0.00,,2013-04-30 19:52:00,
2013-04-30 16:02:00,80.0,55.0,29.15,ENE,70,5.0,7.0,42,0.00,,,0.00,,2013-04-30 20:02:00,
2013-04-30 16:11:00,80.0,55.0,29.15,ENE,70,5.0,7.0,42,0.00,,,0.00,,2013-04-30 20:11:00,
2013-04-30 16:22:00,80.0,55.0,29.15,ENE,70,5.0,7.0,42,0.00,,,0.00,,2013-04-30 20:22:00,
2013-04-30 16:32:00,80.0,55.0,29.15,ENE,67,7.0,10.0,43,0.00,,,0.00,,2013-04-30 20:32:00,
2013-04-30 16:42:00,80.0,55.0,29.15,ENE,67,7.0,10.0,43,0.00,,,0.00,,2013-04-30 20:42:00,
2013-04-30 16:52:00,79.0,55.0,29.15,NE,49,4.0,7.0,44,0.00,,,0.00,,2013-04-30 20:52:00,
2013-04-30 17:02:00,78.0,54.0,29.15,ENE,57,4.0,10.0,44,0.00,,,0.00,,2013-04-30 21:02:00,
2013-04-30 17:11:00,78.0,54.0,29.15,ENE,57,4.0,10.0,44,0.00,,,0.00,,2013-04-30 21:11:00,
2013-04-30 17:22:00,78.0,54.0,29.15,ENE,57,4.0,7.0,44,0.00,,,0.00,,2013-04-30 21:22:00,
2013-04-30 17:32:00,77.0,53.0,29.15,NE,55,6.0,8.0,44,0.00,,,0.00,,2013-04-30 21:32:00,
2013-04-30 17:42:00,77.0,53.0,29.15,NE,55,6.0,8.0,44,0.00,,,0.00,,2013-04-30 21:42:00,
2013-04-30 17:53:00,77.0,53.0,29.15,NE,55,6.0,8.0,44,0.00,,,0.00,,2013-04-30 21:53:00,
2013-04-30 18:02:00,76.0,52.0,29.15,ENE,68,5.0,7.0,44,0.00,,,0.00,,2013-04-30 22:02:00,
2013-04-30 18:12:00,76.0,52.0,29.15,ENE,68,5.0,7.0,44,0.00,,,0.00,,2013-04-30 22:12:00,
2013-04-30 18:23:00,76.0,54.0,29.15,ENE,65,4.0,7.0,46,0.00,,,0.00,,2013-04-30 22:23:00,
2013-04-30 18:33:00,76.0,54.0,29.15,ENE,65,4.0,7.0,46,0.00,,,0.00,,2013-04-30 22:33:00,
2013-04-30 18:42:00,76.0,54.0,29.15,ENE,65,4.0,7.0,46,0.00,,,0.00,,2013-04-30 22:42:00,
2013-04-30 18:52:00,75.0,53.0,29.15,North,0,0.0,7.0,47,0.00,,,0.00,,2013-04-30 22:52:00,
2013-04-30 19:03:00,74.0,52.0,29.15,ENE,70,6.0,6.0,47,0.00,,,0.00,,2013-04-30 23:03:00,
2013-04-30 19:12:00,74.0,52.0,29.15,ENE,70,6.0,6.0,47,0.00,,,0.00,,2013-04-30 23:12:00,
2013-04-30 19:22:00,73.0,52.0,29.15,ENE,68,4.0,6.0,47,0.00,,,0.00,,2013-04-30 23:22:00,
2013-04-30 19:32:00,73.0,52.0,29.15,North,0,0.0,4.0,47,0.00,,,0.00,,2013-04-30 23:32:00,
2013-04-30 19:42:00,73.0,52.0,29.15,North,0,0.0,4.0,47,0.00,,,0.00,,2013-04-30 23:42:00,
2013-04-30 19:52:00,72.0,54.0,29.15,North,0,0.0,4.0,54,0.00,,,0.00,,2013-04-30 23:52:00,
2013-04-30 20:02:00,72.0,54.0,29.15,North,0,0.0,4.0,54,0.00,,,0.00,,2013-05-01 00:02:00,
2013-04-30 20:11:00,72.0,54.0,29.15,North,0,0.0,4.0,54,0.00,,,0.00,,2013-05-01 00:11:00,
2013-04-30 20:22:00,68.0,58.0,29.15,North,0,0.0,0.0,71,0.00,,,0.00,,2013-05-01 00:22:00,
2013-04-30 20:32:00,65.0,56.0,29.18,North,0,0.0,0.0,73,0.00,,,0.00,,2013-05-01 00:32:00,
2013-04-30 20:42:00,65.0,56.0,29.18,North,0,0.0,0.0,73,0.00,,,0.00,,2013-05-01 00:42:00,
2013-04-30 20:52:00,64.0,56.0,29.18,North,0,0.0,0.0,74,0.00,,,0.00,,2013-05-01 00:52:00,
2013-04-30 21:01:00,63.0,57.0,29.18,North,0,0.0,0.0,80,0.00,,,0.00,,2013-05-01 01:01:00,
2013-04-30 21:11:00,63.0,57.0,29.18,North,0,0.0,0.0,80,0.00,,,0.00,,2013-05-01 01:11:00,
2013-04-30 21:21:00,62.0,56.0,29.18,North,0,0.0,0.0,82,0.00,,,0.00,,2013-05-01 01:21:00,
2013-04-30 21:32:00,62.0,56.0,29.18,North,0,0.0,0.0,82,0.00,,,0.00,,2013-05-01 01:32:00,
2013-04-30 21:42:00,62.0,56.0,29.18,North,0,0.0,0.0,82,0.00,,,0.00,,2013-05-01 01:42:00,
2013-04-30 21:52:00,61.0,56.0,29.18,North,0,0.0,0.0,84,0.00,,,0.00,,2013-05-01 01:52:00,
2013-04-30 22:02:00,61.0,58.0,29.21,North,0,0.0,0.0,89,0.00,,,0.00,,2013-05-01 02:02:00,
2013-04-30 22:11:00,61.0,58.0,29.21,North,0,0.0,0.0,89,0.00,,,0.00,,2013-05-01 02:11:00,
2013-04-30 22:21:00,61.0,58.0,29.21,North,0,0.0,0.0,90,0.00,,,0.00,,2013-05-01 02:21:00,
2013-04-30 22:32:00,61.0,58.0,29.21,North,0,0.0,0.0,90,0.00,,,0.00,,2013-05-01 02:32:00,
2013-04-30 22:42:00,61.0,58.0,29.21,North,0,0.0,0.0,90,0.00,,,0.00,,2013-05-01 02:42:00,
2013-04-30 22:52:00,59.0,57.0,29.21,North,0,0.0,0.0,93,0.00,,,0.00,,2013-05-01 02:52:00,
2013-04-30 23:02:00,59.0,57.0,29.21,North,0,0.0,0.0,93,0.00,,,0.00,,2013-05-01 03:02:00,
2013-04-30 23:11:00,59.0,57.0,29.21,North,0,0.0,0.0,93,0.00,,,0.00,,2013-05-01 03:11:00,
2013-04-30 23:22:00,59.0,57.0,29.23,North,0,0.0,0.0,94,0.00,,,0.00,,2013-05-01 03:22:00,
2013-04-30 23:33:00,58.0,57.0,29.23,North,0,0.0,0.0,96,0.00,,,0.00,,2013-05-01 03:33:00,
2013-04-30 23:43:00,58.0,57.0,29.23,North,0,0.0,0.0,96,0.00,,,0.00,,2013-05-01 03:43:00,
2013-04-30 23:53:00,58.0,57.0,29.23,North,0,0.0,0.0,96,0.00,,,0.00,,2013-05-01 03:53:00,